Pleasant Grove, Utah
Current Conditions -  °F | °C
As of 5:51 PM on Monday 22 Dec 2014 (Local Time) from KPVU Reporting Station
Scattered Clouds Scattered Clouds  
Wind Chill: 29°   Ceiling: Unl
Heat Index: 39°   Visibility: 10mi
Dew Point: 39°   Wind: 23mph
Humidity: 100%   Direction: 320°NW
Pressure: 30.03"   Gusts: 31mph
Location:  40.36°N, 111.73°W
Report Text: KPVU 230051Z 32020G27KT 10SM SCT060 SCT070 04/04 A3003
Loading
Personal Weather Stations






























Interactive Weather Map New forecast layout! Learn more

10-Day Weather Forecast

Advertisements
Track Severe Weather on mobile